Hauptseite
METAR-TAF:

METAR-TAF

Flughäfen :

London Oxford Airport

Oxford, England

Breite: 51-50-13N, Länge: 1-19-12W, Höhe: 82 m

Beobachtung

Neuester Wetterbericht von vor 7 Stunden und 51 Minuten, um 22:20 UTC
Wind 4 kt aus West/Nordwest
Temperatur 0°C
Luftfeuchtigkeit 100%
Luftdruck 997 hPa
Sichtweite 10 km oder mehr
keine Wolken unter 1500 m und keine Kumulonimbus oder Gewitterwolken

METAR: EGTK 222220Z 29004KT CAVOK M00/M00 Q0997

Zeit: 06:11 (06:11 UTC)

Prognose

Neuester Wetterbericht von vor 8 Stunden und 44 Minuten, um 21:27 UTC
Gültige Prognose vom 22 um 21 UTC bis 22 um 23 UTC
Wind 3 kt aus West/Südwest
Sichtweite 10 km oder mehr
Aufgelockert bewölkt in der Höhe von 1500 ft
Wahrscheinlichkeit 40%
vom 22 um 21 UTC bis 22 um 23 UTC
Sichtweite: 3000 m
Geschlossene Wolkendecke in der Höhe von 500 ft
feuchter Dunst

TAF: EGTK 222127Z 2221/2223 25003KT 9999 SCT015 PROB40 2221/2223 3000 BR OVC005

Wetterbeobachtungen und Prognosen von mehr als 4000 Flughäfen (METAR und TAF Bericht).

Die verfügbaren Stationen werden durch gelbe und rote Markierungen auf der Karte dargestellt.

Führen Sie die Maus auf sie, um den Namen der Station zu sehen.

Darauf klicken, um die Beobachtung von Wetterbeobachtungen und Prognosen zu sehen.

Um die Karte zu ändern : klicken Sie auf den grünen Tasten mit einem schwarzen Kreuz Zum Vergrößern, auf den grünen Button mit einem Gedankenstrich zu verkleinern, oder auf die grünen Pfeile für benachbarte Karten.


METAR-TAF: